createdAt,value
2023-04-09T00:00:12.741Z,31.00
2023-04-09T00:02:39.792Z,32.63
2023-04-09T00:05:07.696Z,31.48
2023-04-09T00:07:34.706Z,32.80
2023-04-09T00:10:01.702Z,29.75
2023-04-09T00:12:30.363Z,30.50
2023-04-09T00:14:57.831Z,30.40
2023-04-09T00:17:24.900Z,34.08
2023-04-09T00:19:52.328Z,32.85
2023-04-09T00:22:19.282Z,30.13
2023-04-09T00:24:46.247Z,29.58
2023-04-09T00:27:13.250Z,33.72
2023-04-09T00:29:40.316Z,36.00
2023-04-09T00:32:07.623Z,38.13
2023-04-09T00:34:34.699Z,36.28
2023-04-09T00:37:01.659Z,32.67
2023-04-09T00:39:28.624Z,34.28
2023-04-09T00:41:59.680Z,35.05
2023-04-09T00:44:26.617Z,38.50
2023-04-09T00:46:54.108Z,33.70
2023-04-09T00:49:21.465Z,38.00
2023-04-09T00:51:48.656Z,38.05
2023-04-09T00:54:16.249Z,32.20
2023-04-09T00:56:43.398Z,35.63
2023-04-09T00:59:10.329Z,33.92
2023-04-09T01:01:37.293Z,34.40
2023-04-09T01:04:04.302Z,35.40
2023-04-09T01:06:49.178Z,34.20
2023-04-09T01:09:28.637Z,34.78
2023-04-09T01:12:30.377Z,32.08
2023-04-09T01:14:57.988Z,36.10
2023-04-09T01:17:41.550Z,32.22
2023-04-09T01:20:30.996Z,32.53
2023-04-09T01:23:19.736Z,35.10
2023-04-09T01:25:49.746Z,36.05
2023-04-09T01:28:17.573Z,35.30
2023-04-09T01:30:49.812Z,38.13
2023-04-09T01:33:17.781Z,39.55
2023-04-09T01:35:48.569Z,35.65
2023-04-09T01:38:18.035Z,35.97
2023-04-09T01:40:45.144Z,36.65
2023-04-09T01:43:12.220Z,35.20
2023-04-09T01:45:39.431Z,35.40
2023-04-09T01:48:06.806Z,36.40
2023-04-09T01:50:33.733Z,38.97
2023-04-09T01:53:01.686Z,37.05
2023-04-09T01:55:28.649Z,38.00
2023-04-09T01:57:55.792Z,38.22
2023-04-09T02:00:23.383Z,38.67
2023-04-09T02:02:57.891Z,41.88
2023-04-09T02:05:27.165Z,38.58
2023-04-09T02:07:56.659Z,37.22
2023-04-09T02:10:26.389Z,37.42
2023-04-09T02:12:53.838Z,38.53
2023-04-09T02:15:20.819Z,36.25
2023-04-09T02:17:47.868Z,39.00
2023-04-09T02:20:18.961Z,37.65
2023-04-09T02:22:46.746Z,35.05
2023-04-09T02:25:13.674Z,37.65
2023-04-09T02:27:40.626Z,37.15
2023-04-09T02:30:08.149Z,36.22
2023-04-09T02:32:35.102Z,35.60
2023-04-09T02:35:02.057Z,36.40
2023-04-09T02:37:29.238Z,35.63
2023-04-09T02:39:56.208Z,36.75
2023-04-09T02:42:23.124Z,36.08
2023-04-09T02:44:50.013Z,36.45
2023-04-09T02:47:19.622Z,37.05
2023-04-09T02:49:46.612Z,35.17
2023-04-09T02:52:13.562Z,38.80
2023-04-09T02:54:40.714Z,37.03
2023-04-09T02:57:07.658Z,39.30
2023-04-09T02:59:35.840Z,38.75
2023-04-09T03:02:03.017Z,41.05
2023-04-09T03:04:30.001Z,39.88
2023-04-09T03:06:56.930Z,37.25
2023-04-09T03:09:23.908Z,37.13
2023-04-09T03:11:50.991Z,34.28
2023-04-09T03:14:17.891Z,34.50
2023-04-09T03:16:44.819Z,37.63
2023-04-09T03:19:11.729Z,34.70
2023-04-09T03:21:38.811Z,35.83
2023-04-09T03:24:06.223Z,37.28
2023-04-09T03:26:36.518Z,39.53
2023-04-09T03:31:33.049Z,35.20
2023-04-09T03:34:00.242Z,34.63
2023-04-09T03:36:28.239Z,37.55
2023-04-09T03:38:55.182Z,37.22
2023-04-09T03:41:27.907Z,37.70
2023-04-09T03:43:56.835Z,38.30
2023-04-09T03:46:28.016Z,35.83
2023-04-09T03:48:56.895Z,39.60
2023-04-09T03:51:32.088Z,38.63
2023-04-09T03:53:59.597Z,37.40
2023-04-09T03:56:26.581Z,40.42
2023-04-09T03:58:53.814Z,38.50
2023-04-09T04:01:25.183Z,38.28
2023-04-09T04:03:57.004Z,38.15
2023-04-09T04:06:27.309Z,40.60
2023-04-09T04:09:08.258Z,40.78
2023-04-09T04:11:47.365Z,42.05
2023-04-09T04:14:15.755Z,37.40
2023-04-09T04:16:46.289Z,38.05
2023-04-09T04:19:17.262Z,38.50
2023-04-09T04:21:48.141Z,36.67
2023-04-09T04:24:16.062Z,38.45
2023-04-09T04:26:42.984Z,41.50
2023-04-09T04:29:12.840Z,38.40
2023-04-09T04:31:51.917Z,43.15
2023-04-09T04:34:21.687Z,40.90
2023-04-09T04:36:56.626Z,36.83
2023-04-09T04:39:24.253Z,38.38
2023-04-09T04:41:57.265Z,40.13
2023-04-09T04:44:27.028Z,41.22
2023-04-09T04:47:05.306Z,40.80
2023-04-09T04:49:32.232Z,38.85
2023-04-09T04:52:00.911Z,38.15
2023-04-09T04:54:28.107Z,39.58
2023-04-09T04:56:57.484Z,39.63
2023-04-09T04:59:40.001Z,36.40
2023-04-09T05:02:09.351Z,36.58
2023-04-09T05:05:08.860Z,40.35
2023-04-09T05:07:41.787Z,40.20
2023-04-09T05:10:09.709Z,40.40
2023-04-09T05:12:40.558Z,39.42
2023-04-09T05:15:09.104Z,38.42
2023-04-09T05:17:37.928Z,39.10
2023-04-09T05:20:06.853Z,39.97
2023-04-09T05:22:43.779Z,37.78
2023-04-09T05:25:10.861Z,42.97
2023-04-09T05:27:39.824Z,39.22
2023-04-09T05:30:08.063Z,41.13
2023-04-09T05:32:35.604Z,40.13
2023-04-09T05:35:03.274Z,40.95
2023-04-09T05:37:31.771Z,41.92
2023-04-09T05:39:58.710Z,41.63
2023-04-09T05:42:25.773Z,43.10
2023-04-09T05:45:00.302Z,44.20
2023-04-09T05:47:27.762Z,40.15
2023-04-09T05:50:17.233Z,39.13
2023-04-09T05:52:44.649Z,39.83
2023-04-09T05:55:16.636Z,40.10
2023-04-09T05:57:48.288Z,37.10
2023-04-09T06:00:15.826Z,36.38
2023-04-09T06:02:45.721Z,36.85
2023-04-09T06:05:12.803Z,39.20
2023-04-09T06:07:40.280Z,36.42
2023-04-09T06:10:08.002Z,39.45
2023-04-09T06:12:36.128Z,34.80
2023-04-09T06:15:05.417Z,39.47
2023-04-09T06:17:33.096Z,38.17
2023-04-09T06:20:00.020Z,39.72
2023-04-09T06:22:26.962Z,42.92
2023-04-09T06:24:53.915Z,41.72
2023-04-09T06:27:22.168Z,39.85
2023-04-09T06:29:49.135Z,40.03
2023-04-09T06:32:16.503Z,40.47
2023-04-09T06:34:43.559Z,40.53
2023-04-09T06:37:10.506Z,40.17
2023-04-09T06:39:40.333Z,39.10
2023-04-09T06:42:07.667Z,40.20
2023-04-09T06:44:40.459Z,36.75
2023-04-09T06:47:08.849Z,42.22
2023-04-09T06:49:36.050Z,36.70
2023-04-09T06:52:03.100Z,37.90
2023-04-09T06:54:30.116Z,34.35
2023-04-09T06:56:57.184Z,33.03
2023-04-09T06:59:24.132Z,36.80
2023-04-09T07:01:54.042Z,36.55
2023-04-09T07:04:21.823Z,35.88
2023-04-09T07:06:48.750Z,31.45
2023-04-09T07:09:15.720Z,34.30
2023-04-09T07:11:42.634Z,41.15
2023-04-09T07:14:09.625Z,31.48
2023-04-09T07:16:36.645Z,33.65
2023-04-09T07:19:03.685Z,34.25
2023-04-09T07:21:30.596Z,38.25
2023-04-09T07:23:57.619Z,33.42
2023-04-09T07:26:24.600Z,32.95
2023-04-09T07:28:51.684Z,31.33
2023-04-09T07:31:18.893Z,30.45
2023-04-09T07:33:46.152Z,29.25
2023-04-09T07:36:16.301Z,28.38
2023-04-09T07:38:43.319Z,27.83
2023-04-09T07:41:13.400Z,27.67
2023-04-09T07:43:41.023Z,25.35
2023-04-09T07:46:08.030Z,24.27
2023-04-09T07:48:35.027Z,22.40
2023-04-09T07:51:01.922Z,23.42
2023-04-09T07:53:28.841Z,20.42
2023-04-09T07:55:56.452Z,22.20
2023-04-09T07:58:23.606Z,23.98
2023-04-09T08:00:50.606Z,21.67
2023-04-09T08:03:17.799Z,22.55
2023-04-09T08:05:45.692Z,23.45
2023-04-09T08:08:12.649Z,21.90
2023-04-09T08:10:39.605Z,23.27
2023-04-09T08:13:06.686Z,23.23
2023-04-09T08:15:33.640Z,22.63
2023-04-09T08:18:03.103Z,22.48
2023-04-09T08:20:30.572Z,21.83
2023-04-09T08:22:57.729Z,21.98
2023-04-09T08:25:24.961Z,19.85
2023-04-09T08:27:54.949Z,19.75
2023-04-09T08:30:22.096Z,20.58
2023-04-09T08:32:49.278Z,22.50
2023-04-09T08:35:16.375Z,22.88
2023-04-09T08:37:43.783Z,21.67
2023-04-09T08:40:11.844Z,22.08
2023-04-09T08:42:45.283Z,20.63
2023-04-09T08:45:12.991Z,22.85
2023-04-09T08:47:41.800Z,22.08
2023-04-09T08:50:09.151Z,23.67
2023-04-09T08:52:36.243Z,20.63
2023-04-09T08:55:03.429Z,23.02
2023-04-09T08:57:30.573Z,22.23
2023-04-09T08:59:58.871Z,23.15
2023-04-09T09:02:25.902Z,23.60
2023-04-09T09:04:55.171Z,23.33
2023-04-09T09:07:22.249Z,22.20
2023-04-09T09:09:59.497Z,22.45
2023-04-09T09:12:33.851Z,20.90
2023-04-09T09:15:00.805Z,20.63
2023-04-09T09:17:27.747Z,17.58
2023-04-09T09:19:54.719Z,15.90
2023-04-09T09:22:21.732Z,15.85
2023-04-09T09:24:52.743Z,16.67
2023-04-09T09:27:43.200Z,13.90
2023-04-09T09:30:10.898Z,12.32
2023-04-09T09:32:37.942Z,17.58
2023-04-09T09:35:06.180Z,14.63
2023-04-09T09:37:33.761Z,15.20
2023-04-09T09:40:01.011Z,17.10
2023-04-09T09:42:28.055Z,14.93
2023-04-09T09:44:55.470Z,14.50
2023-04-09T09:47:22.925Z,13.60
2023-04-09T09:49:52.748Z,14.57
2023-04-09T09:52:24.542Z,15.55
2023-04-09T09:54:54.888Z,13.40
2023-04-09T09:57:24.170Z,14.40
2023-04-09T09:59:56.033Z,14.90
2023-04-09T10:02:30.900Z,14.20
2023-04-09T10:05:00.779Z,14.45
2023-04-09T10:07:27.788Z,13.88
2023-04-09T10:09:54.870Z,15.48
2023-04-09T10:12:23.951Z,14.55
2023-04-09T10:14:52.955Z,13.73
2023-04-09T10:17:21.088Z,15.32
2023-04-09T10:20:05.723Z,16.90
2023-04-09T10:22:32.698Z,14.63
2023-04-09T10:24:59.988Z,15.30
2023-04-09T10:27:29.631Z,17.70
2023-04-09T10:29:56.570Z,15.30
2023-04-09T10:32:26.513Z,18.05
2023-04-09T10:34:57.282Z,18.45
2023-04-09T10:37:28.131Z,16.98
2023-04-09T10:39:55.133Z,19.95
2023-04-09T10:42:42.075Z,17.55
2023-04-09T10:45:10.800Z,18.58
2023-04-09T10:47:39.352Z,17.17
2023-04-09T10:50:16.235Z,18.27
2023-04-09T10:52:44.518Z,17.20
2023-04-09T10:55:34.445Z,15.65
2023-04-09T10:58:01.420Z,15.40
2023-04-09T11:00:28.375Z,18.83
2023-04-09T11:03:00.296Z,17.63
2023-04-09T11:05:30.711Z,18.17
2023-04-09T11:08:11.039Z,18.33
2023-04-09T11:10:42.251Z,19.05
2023-04-09T11:13:13.671Z,21.73
2023-04-09T11:15:41.889Z,20.77
2023-04-09T11:18:14.326Z,17.00
2023-04-09T11:20:41.337Z,19.33
2023-04-09T11:23:08.384Z,18.90
2023-04-09T11:25:35.721Z,19.80
2023-04-09T11:28:03.238Z,19.38
2023-04-09T11:30:31.132Z,19.52
2023-04-09T11:32:58.104Z,20.00
2023-04-09T11:35:25.755Z,19.02
2023-04-09T11:37:53.226Z,18.92
2023-04-09T11:40:24.581Z,19.00
2023-04-09T11:42:54.584Z,17.73
2023-04-09T11:45:24.348Z,17.92
2023-04-09T11:47:51.625Z,18.88
2023-04-09T11:50:19.366Z,20.00
2023-04-09T11:52:46.608Z,19.10
2023-04-09T11:55:22.654Z,18.35
2023-04-09T11:57:50.708Z,19.27
2023-04-09T12:00:17.880Z,21.15
2023-04-09T12:02:46.741Z,21.02
2023-04-09T12:05:22.416Z,18.92
2023-04-09T12:07:56.454Z,21.83
2023-04-09T12:10:27.456Z,22.42
2023-04-09T12:12:55.296Z,18.80
2023-04-09T12:15:26.212Z,20.55
2023-04-09T12:17:57.637Z,21.48
2023-04-09T12:20:39.683Z,18.38
2023-04-09T12:23:07.223Z,17.45
2023-04-09T12:25:35.677Z,19.20
2023-04-09T12:28:03.272Z,19.85
2023-04-09T12:30:30.170Z,21.15
2023-04-09T12:32:57.212Z,15.55
2023-04-09T12:35:24.342Z,18.25
2023-04-09T12:37:51.544Z,16.70
2023-04-09T12:40:19.447Z,17.67
2023-04-09T12:42:46.752Z,18.73
2023-04-09T12:45:15.642Z,16.80
2023-04-09T12:47:42.788Z,17.90
2023-04-09T12:50:10.469Z,15.43
2023-04-09T12:52:37.461Z,19.25
2023-04-09T12:55:04.929Z,17.08
2023-04-09T12:57:31.880Z,20.00
2023-04-09T12:59:59.748Z,18.30
2023-04-09T13:02:26.950Z,16.15
2023-04-09T13:04:54.089Z,14.70
2023-04-09T13:07:21.115Z,16.27
2023-04-09T13:09:51.245Z,18.67
2023-04-09T13:12:23.781Z,14.88
2023-04-09T13:14:58.423Z,17.40
2023-04-09T13:17:34.739Z,18.48
2023-04-09T13:20:14.702Z,18.08
2023-04-09T13:22:44.137Z,19.38
2023-04-09T13:25:18.314Z,19.90
2023-04-09T13:27:45.767Z,19.67
2023-04-09T13:30:12.849Z,15.18
2023-04-09T13:32:39.823Z,14.98
2023-04-09T13:35:07.738Z,16.77
2023-04-09T13:41:44.356Z,16.83
2023-04-09T13:44:11.554Z,17.83
2023-04-09T13:46:38.629Z,16.17
2023-04-09T13:49:05.692Z,15.57
2023-04-09T13:51:33.162Z,13.40
2023-04-09T13:54:00.284Z,14.90
2023-04-09T13:56:27.560Z,18.20
2023-04-09T13:58:54.820Z,14.95
2023-04-09T14:01:22.334Z,16.33
2023-04-09T14:03:49.933Z,13.15
2023-04-09T14:06:17.075Z,13.43
2023-04-09T14:08:44.324Z,11.82
2023-04-09T14:11:14.041Z,12.35
2023-04-09T14:13:41.233Z,12.68
2023-04-09T14:16:09.007Z,13.85
2023-04-09T14:18:36.821Z,12.57
2023-04-09T14:21:13.586Z,14.98
2023-04-09T14:24:01.086Z,15.05
2023-04-09T14:26:29.150Z,17.00
2023-04-09T14:28:56.623Z,15.38
2023-04-09T14:33:54.729Z,14.82
2023-04-09T14:36:21.855Z,13.15
2023-04-09T14:38:49.241Z,12.52
2023-04-09T14:41:16.877Z,15.18
2023-04-09T14:43:43.839Z,15.20
2023-04-09T14:46:13.545Z,11.85
2023-04-09T14:48:40.658Z,13.43
2023-04-09T14:51:10.148Z,13.75
2023-04-09T14:53:37.303Z,15.85
2023-04-09T14:56:04.539Z,13.10
2023-04-09T14:58:31.510Z,14.90
2023-04-09T15:00:58.543Z,11.73
2023-04-09T15:03:26.179Z,10.95
2023-04-09T15:05:53.426Z,11.65
2023-04-09T15:08:20.441Z,14.50
2023-04-09T15:10:47.341Z,14.05
2023-04-09T15:13:14.271Z,14.35
2023-04-09T15:15:41.755Z,14.63
2023-04-09T15:18:08.741Z,16.45
2023-04-09T15:20:39.365Z,13.93
2023-04-09T15:23:06.370Z,15.88
2023-04-09T15:25:33.283Z,13.15
2023-04-09T15:28:00.213Z,14.88
2023-04-09T15:30:27.259Z,14.07
2023-04-09T15:32:54.281Z,13.95
2023-04-09T15:35:24.981Z,14.93
2023-04-09T15:37:52.042Z,14.82
2023-04-09T15:40:19.199Z,15.27
2023-04-09T15:42:46.165Z,15.13
2023-04-09T15:45:15.060Z,14.23
2023-04-09T15:47:43.120Z,14.82
2023-04-09T15:50:10.307Z,15.30
2023-04-09T15:52:37.233Z,18.17
2023-04-09T15:55:04.374Z,13.75
2023-04-09T15:57:31.331Z,15.20
2023-04-09T15:59:58.329Z,12.30
2023-04-09T16:02:26.340Z,12.20
2023-04-09T16:04:53.430Z,11.63
2023-04-09T16:07:20.469Z,11.15
2023-04-09T16:09:47.423Z,11.25
2023-04-09T16:12:14.391Z,11.82
2023-04-09T16:14:41.309Z,11.85
2023-04-09T16:17:08.353Z,11.02
2023-04-09T16:19:35.652Z,11.35
2023-04-09T16:22:02.627Z,10.70
2023-04-09T16:24:31.543Z,10.65
2023-04-09T16:26:58.524Z,8.95
2023-04-09T16:29:25.500Z,9.95
2023-04-09T16:31:52.922Z,10.38
2023-04-09T16:34:20.081Z,10.02
2023-04-09T16:36:47.090Z,10.88
2023-04-09T16:39:15.466Z,9.70
2023-04-09T16:41:43.748Z,10.57
2023-04-09T16:44:10.712Z,9.77
2023-04-09T16:46:37.695Z,10.07
2023-04-09T16:49:04.641Z,10.48
2023-04-09T16:51:31.601Z,9.57
2023-04-09T16:53:58.540Z,9.43
2023-04-09T16:56:25.492Z,9.07
2023-04-09T16:58:52.621Z,9.85
2023-04-09T17:01:19.798Z,8.75
2023-04-09T17:03:50.331Z,8.00
2023-04-09T17:06:17.594Z,8.40
2023-04-09T17:08:45.330Z,10.82
2023-04-09T17:11:16.161Z,8.82
2023-04-09T17:13:43.181Z,9.23
2023-04-09T17:16:11.834Z,8.35
2023-04-09T17:18:39.107Z,8.55
2023-04-09T17:21:06.800Z,6.85
2023-04-09T17:23:33.837Z,7.65
2023-04-09T17:26:02.268Z,7.82
2023-04-09T17:28:29.211Z,6.47
2023-04-09T17:30:56.213Z,8.00
2023-04-09T17:33:23.130Z,7.22
2023-04-09T17:35:50.795Z,8.35
2023-04-09T17:38:21.312Z,9.07
2023-04-09T17:40:48.523Z,9.25
2023-04-09T17:43:15.694Z,10.07
2023-04-09T17:45:42.742Z,8.85
2023-04-09T17:48:09.776Z,10.00
2023-04-09T17:50:39.943Z,8.63
2023-04-09T17:53:07.577Z,8.88
2023-04-09T17:55:34.584Z,10.32
2023-04-09T17:58:01.625Z,8.15
2023-04-09T18:00:28.755Z,8.40
2023-04-09T18:02:57.641Z,10.30
2023-04-09T18:05:26.134Z,8.15
2023-04-09T18:07:54.945Z,7.20
2023-04-09T18:10:22.435Z,6.65
2023-04-09T18:12:49.396Z,9.23
2023-04-09T18:15:18.660Z,8.25
2023-04-09T18:17:46.308Z,7.28
2023-04-09T18:20:15.408Z,8.40
2023-04-09T18:22:42.982Z,8.25
2023-04-09T18:25:10.467Z,8.35
2023-04-09T18:27:37.584Z,8.40
2023-04-09T18:30:04.915Z,8.75
2023-04-09T18:32:32.464Z,6.90
2023-04-09T18:34:59.489Z,7.57
2023-04-09T18:37:26.950Z,8.48
2023-04-09T18:39:53.897Z,7.93
2023-04-09T18:42:20.831Z,9.23
2023-04-09T18:44:47.766Z,8.07
2023-04-09T18:47:14.823Z,10.70
2023-04-09T18:49:41.780Z,9.85
2023-04-09T18:52:10.338Z,11.13
2023-04-09T18:54:38.918Z,12.20
2023-04-09T18:57:06.043Z,11.77
2023-04-09T18:59:34.858Z,12.82
2023-04-09T19:02:05.673Z,12.85
2023-04-09T19:04:36.596Z,15.02
2023-04-09T19:07:03.735Z,15.95
2023-04-09T19:09:31.675Z,14.70
2023-04-09T19:11:58.876Z,15.00
2023-04-09T19:14:26.148Z,15.40
2023-04-09T19:16:53.289Z,15.63
2023-04-09T19:19:20.290Z,15.73
2023-04-09T19:21:47.347Z,14.80
2023-04-09T19:24:14.234Z,17.88
2023-04-09T19:26:41.147Z,16.38
2023-04-09T19:29:08.562Z,14.40
2023-04-09T19:31:35.733Z,16.25
2023-04-09T19:34:02.784Z,13.73
2023-04-09T19:36:32.009Z,16.17
2023-04-09T19:38:58.963Z,17.42
2023-04-09T19:41:26.081Z,14.82
2023-04-09T19:43:53.002Z,16.38
2023-04-09T19:46:20.140Z,14.18
2023-04-09T19:48:47.716Z,15.73
2023-04-09T19:51:18.241Z,16.13
2023-04-09T19:53:46.873Z,15.55
2023-04-09T19:56:14.311Z,14.50
2023-04-09T19:58:43.178Z,14.40
2023-04-09T20:01:10.201Z,13.55
2023-04-09T20:03:37.543Z,13.18
2023-04-09T20:06:09.318Z,13.38
2023-04-09T20:08:36.899Z,14.13
2023-04-09T20:11:03.947Z,13.30
2023-04-09T20:13:30.842Z,14.05
2023-04-09T20:15:57.924Z,14.02
2023-04-09T20:18:24.961Z,12.82
2023-04-09T20:20:52.181Z,13.07
2023-04-09T20:23:19.133Z,13.20
2023-04-09T20:25:46.046Z,12.30
2023-04-09T20:28:12.952Z,13.25
2023-04-09T20:30:40.002Z,12.82
2023-04-09T20:33:06.997Z,12.88
2023-04-09T20:35:36.264Z,11.38
2023-04-09T20:38:03.566Z,13.65
2023-04-09T20:40:31.992Z,13.93
2023-04-09T20:42:59.523Z,11.88
2023-04-09T20:45:26.488Z,11.95
2023-04-09T20:47:53.575Z,13.63
2023-04-09T20:50:20.614Z,12.45
2023-04-09T20:52:48.023Z,11.85
2023-04-09T20:55:15.059Z,13.48
2023-04-09T20:57:42.447Z,13.98
2023-04-09T21:00:10.263Z,12.25
2023-04-09T21:02:38.371Z,14.57
2023-04-09T21:05:21.321Z,12.27
2023-04-09T21:07:49.626Z,12.05
2023-04-09T21:10:16.749Z,14.98
2023-04-09T21:12:43.670Z,12.35
2023-04-09T21:15:11.145Z,12.20
2023-04-09T21:17:38.132Z,11.70
2023-04-09T21:20:05.672Z,11.35
2023-04-09T21:22:33.880Z,12.85
2023-04-09T21:25:00.829Z,12.63
2023-04-09T21:27:27.748Z,12.02
2023-04-09T21:29:54.683Z,12.30
2023-04-09T21:32:21.726Z,12.43
2023-04-09T21:34:48.725Z,12.82
2023-04-09T21:37:15.617Z,13.32
2023-04-09T21:39:42.544Z,12.95
2023-04-09T21:42:09.882Z,13.77
2023-04-09T21:44:36.906Z,13.88
2023-04-09T21:47:07.591Z,12.63
2023-04-09T21:49:39.175Z,12.75
2023-04-09T21:52:10.972Z,12.00
2023-04-09T21:54:37.875Z,11.75
2023-04-09T21:57:05.202Z,12.90
2023-04-09T21:59:32.122Z,11.13
2023-04-09T22:01:59.176Z,11.45
2023-04-09T22:04:26.335Z,11.82
2023-04-09T22:06:53.311Z,11.43
2023-04-09T22:09:20.337Z,12.80
2023-04-09T22:11:47.563Z,12.77
2023-04-09T22:14:17.666Z,13.30
2023-04-09T22:16:44.615Z,11.88
2023-04-09T22:19:14.080Z,11.13
2023-04-09T22:21:41.667Z,10.82
2023-04-09T22:24:08.774Z,13.32
2023-04-09T22:26:35.807Z,10.68
2023-04-09T22:29:04.339Z,11.75
2023-04-09T22:31:33.487Z,11.20
2023-04-09T22:34:09.935Z,12.57
2023-04-09T22:36:44.475Z,12.60
2023-04-09T22:39:11.398Z,11.90
2023-04-09T22:41:38.670Z,13.13
2023-04-09T22:44:06.705Z,10.88
2023-04-09T22:46:35.017Z,12.15
2023-04-09T22:49:04.980Z,12.48
2023-04-09T22:51:34.746Z,10.70
2023-04-09T22:54:02.169Z,12.70
2023-04-09T22:56:31.751Z,12.88
2023-04-09T22:58:58.975Z,12.48
2023-04-09T23:01:26.451Z,11.88
2023-04-09T23:03:53.532Z,10.52
2023-04-09T23:06:21.842Z,13.50
2023-04-09T23:08:48.873Z,11.32
2023-04-09T23:11:15.815Z,12.82
2023-04-09T23:13:42.712Z,11.00
2023-04-09T23:16:10.484Z,12.00
2023-04-09T23:18:37.610Z,13.00
2023-04-09T23:21:08.431Z,12.90
2023-04-09T23:23:36.173Z,12.70
2023-04-09T23:26:03.193Z,11.90
2023-04-09T23:28:30.287Z,13.30
2023-04-09T23:30:57.251Z,12.57
2023-04-09T23:33:24.399Z,13.50
2023-04-09T23:35:51.512Z,12.00
2023-04-09T23:38:18.597Z,11.35
2023-04-09T23:40:47.380Z,11.65
2023-04-09T23:43:14.521Z,12.25
2023-04-09T23:45:41.564Z,12.68
2023-04-09T23:48:09.190Z,12.20
2023-04-09T23:50:39.940Z,12.07
2023-04-09T23:53:06.886Z,14.35
2023-04-09T23:55:37.985Z,13.93
2023-04-09T23:58:05.596Z,14.68
